Airfield :
LOGIN :

Register | Disclaimer

   EN    FR    IT 

 










Legend :    VFR   Marginal VFR   IFR   Intensive IFR   Very Intensive IFR
Visi :
Ceiling :
>= 8 km
>= 3000ft
5 to 8 km
1000 to 3000 ft
1500m to 5 km
500 to 1000 ft
800 to 1500m
200 to 500 ft
< 800m
< 200 ft
Symbols :   Thunderstorms  Fog  Heavy snow  Heavy precipitations  Wind > 20 kt
SIGMETs :     Misc.  Thunderstorms  Icing  Turbulence  Mountain Waves  Volcanic Ashes






- Airport Elevation : 935 ft


EBFS - Florennes

CURRENT METAR :
  • 112055Z AUTO 19008KT 9999 SCT009/// BKN011/// OVC014/// 04/03 Q1005 GRN

EXPIRED METARs :
  • 112025Z AUTO 19009KT 9999 FEW011/// BKN014/// BKN026/// 04/03 Q1005 GRN
  • 112024Z AUTO 19009KT 9999 FEW011/// BKN014/// BKN026/// 04/03 Q1005 GRN
  • 112003Z AUTO 20009KT 9999 FEW013/// SCT024/// BKN100/// 04/03 Q1005 WHT
  • 111855Z AUTO 21010KT 9999 FEW010/// BKN014/// BKN020/// 04/03 Q1005 GRN
  • 111825Z AUTO 18007KT 9999 FEW004/// BKN010/// BKN013/// 04/04 Q1005 GRN
  • 111824Z AUTO 18007KT 9999 FEW004/// BKN010/// BKN013/// 04/04 Q1005 GRN

TAF TAF EBFS
Valid from the 11 at 19:00 until the 12 at 07:00 UTC


111541Z 1119/1207 24008KT 9999 FEW015 SCT020 BKN040
BECMG 1119/1122 5000 BR FEW010 SCT015 BKN020
BECMG 1200/1202 3000 BR FEW004 SCT006 BKN010



MET'MAP, your aeronautical weather chart ! - Copyright ORBIFLY December 2007 - Disclaimer

ORBIFLY MET'MAP TEAM :

Programming & Development : Alexandra Zaïnal
Concept & original design : Baudouin d'Aumeries
Assistance for programming : Marc-Olivier Méhu
Technical & hardware support : Manuel Goepfert

Contact : metmap@orbifly.com




SOURCES & CREDITS :

   NOAA